Time;durP1;ratioP1;P1;durP2;ratioP2;P2;SDS_P1;SDS_P2;PMS_P1;PMS_P2;Temp;Humidity;BMP_temperature;BMP_pressure;BME280_temperature;BME280_humidity;BME280_pressure;Samples;Min_cycle;Max_cycle;Signal;HPM_P1;HPM_P2
2023/05/11 00:02:12;;;;;;;;;;;13.40;99.90;;;;;;5175127;27;20288;-40
2023/05/11 00:04:37;;;;;;;;;;;13.30;99.90;;;;;;5174570;27;19907;-40
2023/05/11 00:07:03;;;;;;;;;;;13.30;99.90;;;;;;5175359;27;19907;-40
2023/05/11 00:09:29;;;;;;;;;;;13.30;99.90;;;;;;5175332;27;19962;-41
2023/05/11 00:11:54;;;;;;;;;;;13.30;99.90;;;;;;5174259;27;20296;-41
2023/05/11 00:14:20;;;;;;;;;;;13.30;99.90;;;;;;5175178;27;19907;-40
2023/05/11 00:16:45;;;;;;;;;;;13.30;99.90;;;;;;5175061;27;19914;-40
2023/05/11 00:19:11;;;;;;;;;;;13.30;99.90;;;;;;5174460;27;19914;-40
2023/05/11 00:21:36;;;;;;;;;;;13.30;99.90;;;;;;5174923;27;19911;-40
2023/05/11 00:24:02;;;;;;;;;;;13.20;99.90;;;;;;5175288;27;20306;-40
2023/05/11 00:26:27;;;;;;;;;;;13.20;99.90;;;;;;5155753;27;20361;-40
2023/05/11 00:28:52;;;;;;;;;;;13.20;99.90;;;;;;5175118;27;19959;-40
2023/05/11 00:31:18;;;;;;;;;;;13.20;99.90;;;;;;5174804;27;19950;-40
2023/05/11 00:33:44;;;;;;;;;;;13.20;99.90;;;;;;5173995;27;19923;-40
2023/05/11 00:36:09;;;;;;;;;;;13.20;99.90;;;;;;5174664;27;19922;-42
2023/05/11 00:38:40;;;;;;;;;;;13.20;99.90;;;;;;5175069;27;19914;-42
2023/05/11 00:41:08;;;;;;;;;;;13.20;99.90;;;;;;5174151;27;20341;-40
2023/05/11 00:43:33;;;;;;;;;;;13.20;99.90;;;;;;5174755;27;19940;-40
2023/05/11 00:45:59;;;;;;;;;;;13.20;99.90;;;;;;5174881;27;19953;-41
2023/05/11 00:48:25;;;;;;;;;;;13.10;99.90;;;;;;5174225;27;20051;-40
2023/05/11 00:50:50;;;;;;;;;;;13.20;99.90;;;;;;5174782;27;19906;-41
2023/05/11 00:53:16;;;;;;;;;;;13.10;99.90;;;;;;5173963;27;19911;-41
2023/05/11 00:55:41;;;;;;;;;;;13.10;99.90;;;;;;5174890;27;19918;-41
2023/05/11 00:58:07;;;;;;;;;;;13.10;99.90;;;;;;5174888;27;20396;-40
2023/05/11 01:00:32;;;;;;;;;;;13.10;99.90;;;;;;5174092;27;20482;-41
2023/05/11 01:02:58;;;;;;;;;;;13.10;99.90;;;;;;5174481;27;19918;-40
2023/05/11 01:05:29;;;;;;;;;;;13.10;99.90;;;;;;5174830;27;19907;-41
2023/05/11 01:08:00;;;;;;;;;;;13.10;99.90;;;;;;5173945;27;19982;-42
2023/05/11 01:10:32;;;;;;;;;;;13.10;99.90;;;;;;5174667;27;19913;-42
2023/05/11 01:13:01;;;;;;;;;;;13.10;99.90;;;;;;5174331;27;19934;-41
2023/05/11 01:15:35;;;;;;;;;;;13.10;99.90;;;;;;5173810;27;20278;-41
2023/05/11 01:18:08;;;;;;;;;;;13.00;99.90;;;;;;5174649;27;19906;-40
2023/05/11 01:20:34;;;;;;;;;;;13.10;99.90;;;;;;5174753;27;19906;-40
2023/05/11 01:22:59;;;;;;;;;;;13.10;99.90;;;;;;5173075;27;20376;-40
2023/05/11 01:25:43;;;;;;;;;;;13.00;99.90;;;;;;5174607;27;20361;-40
2023/05/11 01:28:18;;;;;;;;;;;13.00;99.90;;;;;;5175570;27;19911;-42
2023/05/11 01:30:49;;;;;;;;;;;13.00;99.90;;;;;;5177611;27;20428;-41
2023/05/11 01:33:15;;;;;;;;;;;13.00;99.90;;;;;;5177606;27;19962;-41
2023/05/11 01:35:44;;;;;;;;;;;13.10;99.90;;;;;;5177210;27;19919;-41
2023/05/11 01:38:10;;;;;;;;;;;13.00;99.90;;;;;;5178161;27;19907;-40
2023/05/11 01:40:38;;;;;;;;;;;13.00;99.90;;;;;;5178120;27;19911;-40
2023/05/11 01:43:06;;;;;;;;;;;13.00;99.90;;;;;;5177064;27;19911;-41
2023/05/11 01:45:33;;;;;;;;;;;13.00;99.90;;;;;;5178159;27;19907;-41
2023/05/11 01:48:01;;;;;;;;;;;13.00;99.90;;;;;;5177886;27;19914;-40
2023/05/11 01:50:28;;;;;;;;;;;13.00;99.90;;;;;;5176904;27;19911;-40
2023/05/11 01:52:53;;;;;;;;;;;13.00;99.90;;;;;;5177868;27;19906;-41
2023/05/11 01:55:20;;;;;;;;;;;12.90;99.90;;;;;;5177793;27;20028;-40
2023/05/11 01:57:47;;;;;;;;;;;13.00;99.90;;;;;;5177325;27;19906;-41
2023/05/11 02:00:14;;;;;;;;;;;13.00;99.90;;;;;;5177447;27;19911;-40
2023/05/11 02:02:40;;;;;;;;;;;13.00;99.90;;;;;;5177664;27;19914;-40
2023/05/11 02:05:06;;;;;;;;;;;12.90;99.90;;;;;;5176941;27;19980;-40
2023/05/11 02:07:33;;;;;;;;;;;13.00;99.90;;;;;;5177954;27;19914;-41
2023/05/11 02:09:59;;;;;;;;;;;13.00;99.90;;;;;;5177226;27;20368;-40
2023/05/11 02:12:25;;;;;;;;;;;13.00;99.90;;;;;;5176521;27;19917;-41
2023/05/11 02:14:51;;;;;;;;;;;13.00;99.90;;;;;;5177341;27;20386;-41
2023/05/11 02:17:19;;;;;;;;;;;13.00;99.90;;;;;;5177400;27;19907;-41
2023/05/11 02:19:45;;;;;;;;;;;12.90;99.90;;;;;;5176400;27;19911;-42
2023/05/11 02:22:11;;;;;;;;;;;12.90;99.90;;;;;;5177257;27;19906;-40
2023/05/11 02:24:37;;;;;;;;;;;13.00;99.90;;;;;;5176822;27;19929;-41
2023/05/11 02:27:03;;;;;;;;;;;12.90;99.90;;;;;;5176521;27;19919;-40
2023/05/11 02:29:28;;;;;;;;;;;12.90;99.90;;;;;;5176813;27;19910;-40
2023/05/11 02:32:06;;;;;;;;;;;12.90;99.90;;;;;;5176263;27;19907;-41
2023/05/11 02:34:37;;;;;;;;;;;12.90;99.90;;;;;;5176826;27;19918;-41
2023/05/11 02:37:05;;;;;;;;;;;12.90;99.90;;;;;;5176532;27;19967;-40
2023/05/11 02:39:33;;;;;;;;;;;12.90;99.90;;;;;;5174989;27;20379;-42
2023/05/11 02:42:03;;;;;;;;;;;12.90;99.90;;;;;;5176899;27;19966;-41
2023/05/11 02:44:31;;;;;;;;;;;12.90;99.90;;;;;;5177040;27;19907;-41
2023/05/11 02:46:59;;;;;;;;;;;12.90;99.90;;;;;;5175491;27;19962;-42
2023/05/11 02:49:26;;;;;;;;;;;12.80;99.90;;;;;;5176849;27;19914;-40
2023/05/11 02:51:53;;;;;;;;;;;12.80;99.90;;;;;;5176623;27;19907;-42
2023/05/11 02:54:19;;;;;;;;;;;12.80;99.90;;;;;;5175987;27;19914;-40
2023/05/11 02:56:45;;;;;;;;;;;12.80;99.90;;;;;;5176214;27;19918;-42
2023/05/11 02:59:11;;;;;;;;;;;12.80;99.90;;;;;;5176563;27;20280;-40
2023/05/11 03:01:37;;;;;;;;;;;12.80;99.90;;;;;;5175857;27;19907;-42
2023/05/11 03:04:04;;;;;;;;;;;12.80;99.90;;;;;;5176524;27;19973;-40
2023/05/11 03:06:30;;;;;;;;;;;12.80;99.90;;;;;;5176499;27;19918;-41
2023/05/11 03:08:55;;;;;;;;;;;12.80;99.90;;;;;;5175422;27;19918;-41
2023/05/11 03:11:21;;;;;;;;;;;12.80;99.90;;;;;;5175993;27;19910;-41
2023/05/11 03:13:48;;;;;;;;;;;12.80;99.90;;;;;;5176207;27;19914;-40
2023/05/11 03:16:15;;;;;;;;;;;12.80;99.90;;;;;;5175097;27;19937;-40
2023/05/11 03:18:40;;;;;;;;;;;12.80;99.90;;;;;;5175994;27;19911;-40
2023/05/11 03:21:06;;;;;;;;;;;12.80;99.90;;;;;;5175390;27;19963;-40
2023/05/11 03:23:33;;;;;;;;;;;12.80;99.90;;;;;;5176153;27;19907;-40
2023/05/11 03:26:00;;;;;;;;;;;12.70;99.90;;;;;;5175757;27;19906;-41
2023/05/11 03:28:26;;;;;;;;;;;12.70;99.90;;;;;;5175348;27;20031;-41
2023/05/11 03:30:52;;;;;;;;;;;12.70;99.90;;;;;;5175878;27;19951;-40
2023/05/11 03:33:19;;;;;;;;;;;12.70;99.90;;;;;;5175745;27;19958;-40
2023/05/11 03:35:46;;;;;;;;;;;12.70;99.90;;;;;;5174683;27;19925;-40
2023/05/11 03:38:13;;;;;;;;;;;12.80;99.90;;;;;;5176052;27;19906;-41
2023/05/11 03:40:40;;;;;;;;;;;12.70;99.90;;;;;;5175733;27;20258;-41
2023/05/11 03:43:07;;;;;;;;;;;12.70;99.90;;;;;;5174657;27;19907;-40
2023/05/11 03:45:33;;;;;;;;;;;12.70;99.90;;;;;;5175397;27;19950;-41
2023/05/11 03:47:59;;;;;;;;;;;12.70;99.90;;;;;;5175642;27;19960;-41
2023/05/11 03:50:25;;;;;;;;;;;12.70;99.90;;;;;;5174609;27;19970;-40
2023/05/11 03:52:51;;;;;;;;;;;12.70;99.90;;;;;;5175478;27;19907;-41
2023/05/11 03:55:16;;;;;;;;;;;12.70;99.90;;;;;;5175092;27;20293;-42
2023/05/11 03:57:42;;;;;;;;;;;12.70;99.90;;;;;;5174828;27;20191;-42
2023/05/11 04:00:09;;;;;;;;;;;12.70;99.90;;;;;;5175152;27;19907;-41
2023/05/11 04:02:35;;;;;;;;;;;12.70;99.90;;;;;;5175477;27;19906;-41
2023/05/11 04:05:04;;;;;;;;;;;12.70;99.90;;;;;;5174642;27;19907;-41
2023/05/11 04:07:31;;;;;;;;;;;12.70;99.90;;;;;;5175370;27;19907;-41
2023/05/11 04:09:57;;;;;;;;;;;12.70;99.90;;;;;;5175324;27;19990;-41
2023/05/11 04:12:22;;;;;;;;;;;12.70;99.90;;;;;;5174309;27;19972;-41
2023/05/11 04:14:48;;;;;;;;;;;12.70;99.90;;;;;;5175248;27;19918;-41
2023/05/11 04:17:13;;;;;;;;;;;12.60;99.90;;;;;;5174483;27;19918;-42
2023/05/11 04:19:38;;;;;;;;;;;12.60;99.90;;;;;;5175307;27;19907;-41
2023/05/11 04:22:04;;;;;;;;;;;12.60;99.90;;;;;;5174927;27;20358;-42
2023/05/11 04:24:29;;;;;;;;;;;12.60;99.90;;;;;;5174357;27;19951;-41
2023/05/11 04:26:56;;;;;;;;;;;12.60;99.90;;;;;;5175019;27;19985;-42
2023/05/11 04:29:21;;;;;;;;;;;12.70;99.90;;;;;;5175351;27;20001;-40
2023/05/11 04:31:47;;;;;;;;;;;12.70;99.90;;;;;;5173865;27;20020;-40
2023/05/11 04:34:12;;;;;;;;;;;12.70;99.90;;;;;;5174755;27;19919;-42
2023/05/11 04:36:38;;;;;;;;;;;12.70;99.90;;;;;;5175080;27;20422;-41
2023/05/11 04:39:04;;;;;;;;;;;12.60;99.90;;;;;;5174100;27;19907;-41
2023/05/11 04:41:30;;;;;;;;;;;12.70;99.90;;;;;;5174749;27;19953;-41
2023/05/11 04:43:55;;;;;;;;;;;12.70;99.90;;;;;;5174932;27;19954;-41
2023/05/11 04:46:22;;;;;;;;;;;12.70;99.90;;;;;;5174306;27;19991;-41
2023/05/11 04:48:47;;;;;;;;;;;12.70;99.90;;;;;;5175014;27;20315;-41
2023/05/11 04:51:13;;;;;;;;;;;12.70;99.90;;;;;;5174678;27;19911;-41
2023/05/11 04:53:38;;;;;;;;;;;12.70;99.90;;;;;;5174025;27;19951;-41
2023/05/11 04:56:04;;;;;;;;;;;12.70;99.90;;;;;;5174884;27;20016;-41
2023/05/11 04:58:29;;;;;;;;;;;12.70;99.90;;;;;;5174937;27;20272;-42
2023/05/11 05:00:55;;;;;;;;;;;12.70;99.90;;;;;;5173442;27;19917;-41
2023/05/11 05:03:20;;;;;;;;;;;12.70;99.90;;;;;;5176463;27;19907;-42
2023/05/11 05:05:46;;;;;;;;;;;12.70;99.90;;;;;;5178871;27;20301;-42
2023/05/11 05:08:12;;;;;;;;;;;12.70;99.90;;;;;;5177966;27;19907;-41
2023/05/11 05:10:37;;;;;;;;;;;12.70;99.90;;;;;;5178534;27;20452;-42
2023/05/11 05:13:03;;;;;;;;;;;12.70;99.90;;;;;;5178650;27;19911;-41
2023/05/11 05:15:28;;;;;;;;;;;12.70;99.90;;;;;;5177897;27;20009;-40
2023/05/11 05:17:54;;;;;;;;;;;12.70;99.90;;;;;;5178638;27;19918;-41
2023/05/11 05:20:19;;;;;;;;;;;12.70;99.90;;;;;;5178394;27;19918;-41
2023/05/11 05:22:45;;;;;;;;;;;12.70;99.90;;;;;;5177695;27;20257;-41
2023/05/11 05:25:10;;;;;;;;;;;12.80;99.90;;;;;;5178392;27;20001;-41
2023/05/11 05:27:36;;;;;;;;;;;12.80;99.90;;;;;;5177723;27;19907;-41
2023/05/11 05:30:01;;;;;;;;;;;12.80;99.90;;;;;;5178005;27;19955;-41
2023/05/11 05:32:27;;;;;;;;;;;12.80;99.90;;;;;;5178399;27;19907;-40
2023/05/11 05:34:53;;;;;;;;;;;12.90;99.90;;;;;;5177329;27;19975;-41
2023/05/11 05:37:18;;;;;;;;;;;12.90;99.90;;;;;;5177715;27;19921;-42
2023/05/11 05:39:44;;;;;;;;;;;12.90;99.90;;;;;;5177836;27;19911;-41
2023/05/11 05:42:09;;;;;;;;;;;12.90;99.90;;;;;;5176923;27;19910;-42
2023/05/11 05:44:35;;;;;;;;;;;12.90;99.90;;;;;;5178159;27;19907;-41
2023/05/11 05:47:00;;;;;;;;;;;12.90;99.90;;;;;;5178049;27;19950;-42
2023/05/11 05:49:25;;;;;;;;;;;12.90;99.90;;;;;;5176758;27;19917;-41
2023/05/11 05:51:51;;;;;;;;;;;12.90;99.90;;;;;;5177118;27;19949;-41
2023/05/11 05:54:16;;;;;;;;;;;12.90;99.90;;;;;;5177976;27;19914;-41
2023/05/11 05:56:42;;;;;;;;;;;12.90;99.90;;;;;;5177177;27;20014;-41
2023/05/11 05:59:09;;;;;;;;;;;13.00;99.90;;;;;;5177805;27;19907;-41
2023/05/11 06:01:35;;;;;;;;;;;13.00;99.90;;;;;;5177344;27;19911;-41
2023/05/11 06:04:00;;;;;;;;;;;13.00;99.90;;;;;;5176845;27;19907;-41
2023/05/11 06:06:26;;;;;;;;;;;13.00;99.90;;;;;;5177642;27;20353;-41
2023/05/11 06:08:52;;;;;;;;;;;13.10;99.90;;;;;;5177117;27;19907;-41
2023/05/11 06:11:17;;;;;;;;;;;13.10;99.90;;;;;;5176811;27;19911;-41
2023/05/11 06:13:43;;;;;;;;;;;13.20;99.90;;;;;;5177293;27;19954;-41
2023/05/11 06:16:08;;;;;;;;;;;13.20;99.90;;;;;;5177380;27;19915;-40
2023/05/11 06:18:33;;;;;;;;;;;13.30;99.90;;;;;;5176633;27;19968;-41
2023/05/11 06:20:59;;;;;;;;;;;13.30;99.90;;;;;;5176859;27;19911;-40
2023/05/11 06:23:24;;;;;;;;;;;13.30;99.90;;;;;;5177220;27;19910;-42
2023/05/11 06:25:50;;;;;;;;;;;13.30;99.90;;;;;;5176512;27;19907;-41
2023/05/11 06:28:15;;;;;;;;;;;13.30;99.90;;;;;;5177267;27;19911;-41
2023/05/11 06:30:41;;;;;;;;;;;13.30;99.90;;;;;;5176942;27;19957;-40
2023/05/11 06:33:06;;;;;;;;;;;13.30;99.90;;;;;;5176105;27;20444;-41
2023/05/11 06:35:32;;;;;;;;;;;13.30;99.90;;;;;;5177063;27;19921;-40
2023/05/11 06:37:58;;;;;;;;;;;13.30;99.90;;;;;;5176295;27;20329;-41
2023/05/11 06:40:24;;;;;;;;;;;13.30;99.90;;;;;;5176343;27;19915;-41
2023/05/11 06:42:49;;;;;;;;;;;13.30;99.90;;;;;;5176562;27;19954;-41
2023/05/11 06:45:15;;;;;;;;;;;13.30;99.90;;;;;;5176200;27;20005;-41
2023/05/11 06:47:41;;;;;;;;;;;13.20;99.90;;;;;;5166962;27;19934;-41
2023/05/11 06:50:06;;;;;;;;;;;13.30;99.90;;;;;;5163292;27;19926;-41
2023/05/11 06:52:32;;;;;;;;;;;13.30;99.90;;;;;;5175257;27;19907;-43
2023/05/11 06:54:57;;;;;;;;;;;13.30;99.90;;;;;;5155594;27;19910;-42
2023/05/11 06:57:22;;;;;;;;;;;13.30;99.90;;;;;;5167479;27;19925;-42
2023/05/11 06:59:48;;;;;;;;;;;13.30;99.90;;;;;;5175685;27;20332;-41
2023/05/11 07:02:13;;;;;;;;;;;13.40;99.90;;;;;;5175205;27;19918;-40
2023/05/11 07:04:39;;;;;;;;;;;13.40;99.90;;;;;;5176231;27;20416;-40
2023/05/11 07:07:04;;;;;;;;;;;13.40;99.90;;;;;;5175230;27;19911;-41
2023/05/11 07:09:30;;;;;;;;;;;13.40;99.90;;;;;;5175696;27;19956;-42
2023/05/11 07:11:56;;;;;;;;;;;13.40;99.90;;;;;;5176263;27;19914;-44
2023/05/11 07:14:21;;;;;;;;;;;13.40;99.90;;;;;;5175296;27;19948;-43
2023/05/11 07:16:47;;;;;;;;;;;13.50;99.90;;;;;;5176410;27;19914;-42
2023/05/11 07:19:13;;;;;;;;;;;13.40;99.90;;;;;;5176105;27;19959;-41
2023/05/11 07:21:38;;;;;;;;;;;13.40;99.90;;;;;;5175414;27;19942;-41
2023/05/11 07:24:04;;;;;;;;;;;13.40;99.90;;;;;;5176128;27;19914;-42
2023/05/11 07:26:29;;;;;;;;;;;13.50;99.90;;;;;;5175294;27;20269;-42
2023/05/11 07:28:55;;;;;;;;;;;13.40;99.90;;;;;;5175131;27;19907;-41
2023/05/11 07:31:20;;;;;;;;;;;13.40;99.90;;;;;;5175876;27;19954;-41
2023/05/11 07:33:46;;;;;;;;;;;13.40;99.90;;;;;;5175052;27;19918;-40
2023/05/11 07:36:11;;;;;;;;;;;13.40;99.90;;;;;;5174985;27;20345;-41
2023/05/11 07:38:37;;;;;;;;;;;13.40;99.90;;;;;;5175280;27;19911;-40
2023/05/11 07:41:02;;;;;;;;;;;13.40;99.90;;;;;;5171749;27;20014;-41
2023/05/11 07:43:28;;;;;;;;;;;13.40;99.90;;;;;;5174874;27;19906;-41
2023/05/11 07:45:53;;;;;;;;;;;13.40;99.90;;;;;;5175729;27;19907;-41
2023/05/11 07:48:19;;;;;;;;;;;13.40;99.90;;;;;;5173178;27;20352;-41
2023/05/11 07:50:45;;;;;;;;;;;13.40;99.90;;;;;;5169892;27;19937;-42
2023/05/11 07:53:10;;;;;;;;;;;13.40;99.90;;;;;;5167213;27;19911;-43
2023/05/11 07:55:36;;;;;;;;;;;13.40;99.90;;;;;;5168265;27;19911;-41
2023/05/11 07:58:01;;;;;;;;;;;13.40;99.90;;;;;;5169691;27;19911;-41
2023/05/11 08:00:27;;;;;;;;;;;13.50;99.90;;;;;;5155087;27;19907;-41
2023/05/11 08:02:52;;;;;;;;;;;13.40;99.90;;;;;;5174043;27;19918;-42
2023/05/11 08:05:18;;;;;;;;;;;13.50;99.90;;;;;;5172437;27;20017;-42
2023/05/11 08:07:44;;;;;;;;;;;13.50;99.90;;;;;;5164854;27;19915;-42
2023/05/11 08:10:10;;;;;;;;;;;13.40;99.90;;;;;;5165716;27;19915;-42
2023/05/11 08:12:35;;;;;;;;;;;13.40;99.90;;;;;;5166001;27;19911;-41
2023/05/11 08:15:02;;;;;;;;;;;13.40;99.90;;;;;;5160310;27;20292;-41
2023/05/11 08:17:28;;;;;;;;;;;13.40;99.90;;;;;;5169532;27;19918;-41
2023/05/11 08:19:54;;;;;;;;;;;13.30;99.90;;;;;;5169291;27;19915;-42
2023/05/11 08:22:20;;;;;;;;;;;13.30;99.90;;;;;;5173674;27;19914;-41
2023/05/11 08:24:45;;;;;;;;;;;13.30;99.90;;;;;;5155458;27;19907;-42
2023/05/11 08:27:11;;;;;;;;;;;13.20;99.90;;;;;;5154259;27;20002;-42
2023/05/11 08:29:36;;;;;;;;;;;13.20;99.90;;;;;;5161655;27;19911;-43
2023/05/11 08:32:02;;;;;;;;;;;13.20;99.90;;;;;;5167255;27;19911;-41
2023/05/11 08:34:27;;;;;;;;;;;13.20;99.90;;;;;;5159511;27;20285;-42
2023/05/11 08:36:54;;;;;;;;;;;13.30;99.90;;;;;;5159707;27;20014;-42
2023/05/11 08:39:20;;;;;;;;;;;13.20;99.90;;;;;;5163943;27;19922;-41
2023/05/11 08:41:47;;;;;;;;;;;13.30;99.90;;;;;;5167636;27;20011;-42
2023/05/11 08:44:13;;;;;;;;;;;13.30;99.90;;;;;;5164210;27;19907;-42
2023/05/11 08:46:40;;;;;;;;;;;13.40;99.90;;;;;;5166038;27;20361;-43
2023/05/11 08:49:06;;;;;;;;;;;13.40;99.90;;;;;;5175439;27;19946;-43
2023/05/11 08:51:32;;;;;;;;;;;13.50;99.90;;;;;;5171161;27;19946;-42
2023/05/11 08:53:58;;;;;;;;;;;13.50;99.90;;;;;;5178881;27;19993;-43
2023/05/11 08:56:25;;;;;;;;;;;13.50;99.90;;;;;;5178968;27;19919;-42
2023/05/11 08:58:53;;;;;;;;;;;13.50;99.90;;;;;;5178308;27;19950;-42
2023/05/11 09:01:19;;;;;;;;;;;13.60;99.90;;;;;;5178134;27;19993;-43
2023/05/11 09:03:45;;;;;;;;;;;13.60;99.90;;;;;;5163573;27;19914;-43
2023/05/11 09:06:11;;;;;;;;;;;13.50;99.90;;;;;;5177934;27;20421;-43
2023/05/11 09:08:37;;;;;;;;;;;13.60;99.90;;;;;;5172582;27;19915;-44
2023/05/11 09:11:03;;;;;;;;;;;13.50;99.90;;;;;;5168662;27;19937;-43
2023/05/11 09:13:29;;;;;;;;;;;13.60;99.90;;;;;;5168047;27;19946;-42
2023/05/11 09:15:55;;;;;;;;;;;13.60;99.90;;;;;;5164158;27;19919;-43
2023/05/11 09:18:20;;;;;;;;;;;13.60;99.90;;;;;;5170529;27;20010;-44
2023/05/11 09:20:46;;;;;;;;;;;13.70;99.90;;;;;;5165171;27;19918;-43
2023/05/11 09:23:14;;;;;;;;;;;13.70;99.90;;;;;;5160945;27;20448;-43
2023/05/11 09:25:40;;;;;;;;;;;13.70;99.90;;;;;;5175268;27;19915;-43
2023/05/11 09:28:05;;;;;;;;;;;13.80;99.90;;;;;;5158711;27;20025;-44
2023/05/11 09:30:32;;;;;;;;;;;13.80;99.90;;;;;;5172082;27;19911;-42
2023/05/11 09:32:59;;;;;;;;;;;13.80;99.90;;;;;;5168213;27;20021;-43
2023/05/11 09:35:25;;;;;;;;;;;13.80;99.90;;;;;;5168045;27;19919;-44
2023/05/11 09:37:59;;;;;;;;;;;13.80;99.90;;;;;;5167522;27;19983;-43
2023/05/11 09:40:26;;;;;;;;;;;13.80;99.90;;;;;;5173596;27;19977;-44
2023/05/11 09:42:51;;;;;;;;;;;13.80;99.90;;;;;;5165806;27;19922;-43
2023/05/11 09:45:35;;;;;;;;;;;13.80;99.90;;;;;;5164687;27;19914;-42
2023/05/11 09:48:02;;;;;;;;;;;13.90;99.90;;;;;;5176144;27;19921;-43
2023/05/11 09:50:30;;;;;;;;;;;13.90;99.90;;;;;;5176967;27;19914;-43
2023/05/11 09:52:56;;;;;;;;;;;13.80;99.90;;;;;;5177269;27;19906;-43
2023/05/11 09:55:21;;;;;;;;;;;13.90;99.90;;;;;;5173799;27;19923;-43
2023/05/11 09:57:54;;;;;;;;;;;13.80;99.90;;;;;;5160879;27;19947;-45
2023/05/11 10:00:20;;;;;;;;;;;13.80;99.90;;;;;;5156046;27;20385;-43
2023/05/11 10:02:57;;;;;;;;;;;13.90;99.90;;;;;;5162259;27;20359;-43
2023/05/11 10:05:23;;;;;;;;;;;13.90;99.90;;;;;;5162808;27;20345;-43
2023/05/11 10:07:55;;;;;;;;;;;13.90;99.90;;;;;;5159612;27;19926;-43
2023/05/11 10:10:20;;;;;;;;;;;13.90;99.90;;;;;;5172389;27;19919;-45
2023/05/11 10:12:46;;;;;;;;;;;13.90;99.90;;;;;;5163854;27;19914;-43
2023/05/11 10:15:12;;;;;;;;;;;13.90;99.90;;;;;;5159444;27;19911;-42
2023/05/11 10:17:38;;;;;;;;;;;13.90;99.90;;;;;;5156527;27;20282;-43
2023/05/11 10:20:04;;;;;;;;;;;13.90;99.90;;;;;;5161194;27;19915;-43
2023/05/11 10:22:30;;;;;;;;;;;14.00;99.90;;;;;;5174186;27;19906;-43
2023/05/11 10:24:56;;;;;;;;;;;14.10;99.90;;;;;;5176266;27;19967;-44
2023/05/11 10:27:22;;;;;;;;;;;14.20;99.90;;;;;;5178000;27;20352;-42
2023/05/11 10:29:48;;;;;;;;;;;14.30;99.90;;;;;;5177761;27;19943;-44
2023/05/11 10:32:15;;;;;;;;;;;14.50;99.90;;;;;;5176092;27;19918;-43
2023/05/11 10:34:40;;;;;;;;;;;14.50;99.90;;;;;;5177378;27;19922;-43
2023/05/11 10:37:07;;;;;;;;;;;14.60;99.90;;;;;;5176944;27;19973;-43
2023/05/11 10:39:35;;;;;;;;;;;14.70;99.90;;;;;;5166707;27;19923;-44
2023/05/11 10:42:24;;;;;;;;;;;14.80;99.90;;;;;;5166053;27;19911;-43
2023/05/11 10:44:49;;;;;;;;;;;15.00;99.90;;;;;;5126748;27;20342;-43
2023/05/11 10:47:21;;;;;;;;;;;15.10;99.90;;;;;;5163213;27;19937;-42
2023/05/11 10:50:10;;;;;;;;;;;15.30;99.90;;;;;;5155590;27;20396;-43
2023/05/11 10:52:43;;;;;;;;;;;15.40;99.90;;;;;;5175125;27;20299;-43
2023/05/11 10:55:16;;;;;;;;;;;15.60;99.90;;;;;;5176423;27;19963;-43
2023/05/11 10:57:47;;;;;;;;;;;15.70;99.90;;;;;;5176199;27;20005;-43
2023/05/11 11:00:46;;;;;;;;;;;15.80;99.90;;;;;;5175166;27;19911;-44
2023/05/11 11:03:12;;;;;;;;;;;15.90;99.90;;;;;;5171602;27;19913;-43
2023/05/11 11:05:38;;;;;;;;;;;15.90;99.90;;;;;;5174395;27;19951;-43
2023/05/11 11:08:06;;;;;;;;;;;16.00;99.90;;;;;;5159064;27;19948;-43
2023/05/11 11:10:33;;;;;;;;;;;16.00;99.90;;;;;;5154293;27;19914;-44
2023/05/11 11:13:18;;;;;;;;;;;16.10;99.90;;;;;;5163601;27;19994;-42
2023/05/11 11:15:56;;;;;;;;;;;16.20;99.90;;;;;;5173229;27;19919;-43
2023/05/11 11:18:23;;;;;;;;;;;16.30;99.90;;;;;;5162076;27;19915;-43
2023/05/11 11:20:49;;;;;;;;;;;16.40;99.90;;;;;;5168698;27;19935;-43
2023/05/11 11:23:33;;;;;;;;;;;16.50;99.90;;;;;;5175119;27;20396;-42
2023/05/11 11:25:59;;;;;;;;;;;16.60;99.90;;;;;;5174633;27;19907;-46
2023/05/11 11:28:25;;;;;;;;;;;16.70;99.90;;;;;;5154389;27;19907;-43
2023/05/11 11:31:09;;;;;;;;;;;16.90;99.90;;;;;;5168897;27;19918;-45
2023/05/11 11:33:42;;;;;;;;;;;17.00;99.90;;;;;;5104984;27;1925988;-44
2023/05/11 11:36:08;;;;;;;;;;;17.20;99.90;;;;;;5165305;27;19912;-43
2023/05/11 11:38:53;;;;;;;;;;;17.30;99.90;;;;;;5138406;27;19915;-46
2023/05/11 11:41:28;;;;;;;;;;;17.30;99.90;;;;;;5150655;27;20358;-43
2023/05/11 11:43:54;;;;;;;;;;;17.40;99.90;;;;;;5137267;27;19938;-43
2023/05/11 11:46:29;;;;;;;;;;;17.40;99.90;;;;;;5134746;27;19962;-43
2023/05/11 11:49:08;;;;;;;;;;;17.50;99.90;;;;;;5135974;27;20007;-44
2023/05/11 11:51:34;;;;;;;;;;;17.60;99.90;;;;;;5142294;27;20004;-44
2023/05/11 11:53:59;;;;;;;;;;;17.60;99.90;;;;;;5165812;27;19942;-43
2023/05/11 11:56:25;;;;;;;;;;;17.60;99.90;;;;;;5162891;27;19927;-45
2023/05/11 11:58:50;;;;;;;;;;;17.60;99.90;;;;;;5134951;27;19912;-43
2023/05/11 12:01:20;;;;;;;;;;;17.60;99.90;;;;;;5130360;28;19908;-44
2023/05/11 12:03:52;;;;;;;;;;;17.60;99.90;;;;;;5135251;27;19914;-43
2023/05/11 12:06:19;;;;;;;;;;;17.60;99.90;;;;;;5150912;27;19967;-42
2023/05/11 12:08:45;;;;;;;;;;;17.60;99.90;;;;;;5150270;27;19919;-45
2023/05/11 12:11:15;;;;;;;;;;;17.60;99.90;;;;;;5150038;27;19912;-44
2023/05/11 12:13:41;;;;;;;;;;;17.60;99.90;;;;;;5149124;27;19920;-43
2023/05/11 12:16:14;;;;;;;;;;;17.60;99.90;;;;;;5153631;27;19949;-43
2023/05/11 12:18:40;;;;;;;;;;;17.60;99.90;;;;;;5167299;27;19915;-45
2023/05/11 12:21:06;;;;;;;;;;;17.60;99.90;;;;;;5146967;27;19911;-44
2023/05/11 12:23:31;;;;;;;;;;;17.50;99.90;;;;;;5157731;27;20012;-44
2023/05/11 12:26:01;;;;;;;;;;;17.50;99.90;;;;;;5172492;27;19907;-43
2023/05/11 12:28:26;;;;;;;;;;;17.40;99.90;;;;;;5147566;27;19914;-43
2023/05/11 12:30:56;;;;;;;;;;;17.40;99.90;;;;;;5129043;28;20273;-43
2023/05/11 12:33:21;;;;;;;;;;;17.30;99.90;;;;;;5129738;27;19920;-44
2023/05/11 12:35:50;;;;;;;;;;;17.30;99.90;;;;;;5142439;27;20344;-43
2023/05/11 12:38:16;;;;;;;;;;;17.10;99.90;;;;;;5141013;27;19920;-45
2023/05/11 12:40:51;;;;;;;;;;;17.00;99.90;;;;;;5129589;28;20449;-42
2023/05/11 12:43:17;;;;;;;;;;;16.90;99.90;;;;;;5134122;27;20405;-44
2023/05/11 12:45:44;;;;;;;;;;;16.90;99.90;;;;;;5135780;27;20346;-43
2023/05/11 12:48:10;;;;;;;;;;;16.90;99.90;;;;;;5135933;27;19926;-43
2023/05/11 12:50:40;;;;;;;;;;;16.90;99.90;;;;;;5139936;27;20432;-44
2023/05/11 12:53:16;;;;;;;;;;;17.00;99.90;;;;;;5135709;27;19923;-43
2023/05/11 12:55:42;;;;;;;;;;;17.10;99.90;;;;;;5142172;27;19915;-43
2023/05/11 12:58:12;;;;;;;;;;;17.30;99.90;;;;;;5148744;27;19923;-43
2023/05/11 13:00:57;;;;;;;;;;;17.50;99.90;;;;;;5135590;27;19947;-45
2023/05/11 13:03:26;;;;;;;;;;;17.60;99.90;;;;;;5126377;27;19923;-43
2023/05/11 13:06:02;;;;;;;;;;;17.70;99.90;;;;;;5114248;28;20078;-43
2023/05/11 13:08:28;;;;;;;;;;;17.60;99.90;;;;;;5115844;28;19915;-44
2023/05/11 13:10:53;;;;;;;;;;;17.50;99.90;;;;;;5115505;28;19912;-43
2023/05/11 13:13:26;;;;;;;;;;;17.40;99.90;;;;;;5105089;27;19923;-43
2023/05/11 13:15:51;;;;;;;;;;;17.30;99.90;;;;;;5114245;28;19907;-43
2023/05/11 13:18:17;;;;;;;;;;;17.30;99.90;;;;;;5124880;27;19937;-44
2023/05/11 13:20:43;;;;;;;;;;;17.30;99.90;;;;;;5143340;27;19911;-42
2023/05/11 13:23:10;;;;;;;;;;;17.20;99.90;;;;;;5139688;27;20010;-43
2023/05/11 13:25:45;;;;;;;;;;;17.20;99.90;;;;;;5134260;27;19950;-43
2023/05/11 13:28:11;;;;;;;;;;;17.30;99.90;;;;;;5121349;27;20390;-43
2023/05/11 13:30:36;;;;;;;;;;;17.30;99.90;;;;;;5114184;28;20006;-42
2023/05/11 13:33:02;;;;;;;;;;;17.40;99.90;;;;;;5118745;27;19927;-43
2023/05/11 13:35:27;;;;;;;;;;;17.40;99.90;;;;;;5135847;27;20427;-45
2023/05/11 13:37:53;;;;;;;;;;;17.30;99.90;;;;;;5121642;27;20308;-43
2023/05/11 13:40:18;;;;;;;;;;;17.30;99.90;;;;;;5127067;27;19934;-43
2023/05/11 13:42:44;;;;;;;;;;;17.30;99.90;;;;;;5126734;27;20027;-43
2023/05/11 13:45:10;;;;;;;;;;;17.30;99.90;;;;;;5127203;27;19923;-44
2023/05/11 13:47:36;;;;;;;;;;;17.20;99.90;;;;;;5113902;28;19914;-43
2023/05/11 13:50:02;;;;;;;;;;;17.10;99.90;;;;;;5114807;28;19907;-42
2023/05/11 13:52:27;;;;;;;;;;;17.10;99.90;;;;;;5114500;28;19919;-43
2023/05/11 13:54:53;;;;;;;;;;;17.00;99.90;;;;;;5115448;27;19916;-43
2023/05/11 13:57:19;;;;;;;;;;;16.80;99.90;;;;;;5124273;27;19919;-43
2023/05/11 13:59:45;;;;;;;;;;;16.70;99.90;;;;;;5114453;28;19911;-43
2023/05/11 14:02:10;;;;;;;;;;;16.70;99.90;;;;;;5114696;28;20343;-42
2023/05/11 14:04:38;;;;;;;;;;;16.50;99.90;;;;;;5115489;28;20354;-43
2023/05/11 14:07:03;;;;;;;;;;;16.60;99.90;;;;;;5115361;28;19907;-43
2023/05/11 14:09:29;;;;;;;;;;;16.60;99.90;;;;;;5114879;27;19912;-43
2023/05/11 14:11:55;;;;;;;;;;;16.70;99.90;;;;;;5114516;28;19920;-43
2023/05/11 14:14:20;;;;;;;;;;;16.70;99.90;;;;;;5114582;28;19908;-44
2023/05/11 14:16:46;;;;;;;;;;;16.80;99.90;;;;;;5114786;28;20289;-43